Time,TemperatureF,DewpointF,PressureIn,WindDirection,WindDirectionDegrees,WindSpeedMPH,WindSpeedGustMPH,Humidity,HourlyPrecipIn,Conditions,Clouds,dailyrainin,SolarRadiationWatts/m^2,SoftwareType,DateUTC
2013-05-31 00:01:00,62.0,49.0,-100.00,SE,142,8.0,14.0,62,0.00,,,0.00,0.000000,,2013-05-31 07:01:00,
2013-05-31 00:21:00,62.0,48.0,-100.00,SSE,151,9.0,15.0,60,0.00,,,0.00,0.000000,,2013-05-31 07:21:00,
2013-05-31 00:32:00,62.0,48.0,-100.00,SSE,151,9.0,15.0,60,0.00,,,0.00,0.000000,,2013-05-31 07:32:00,
2013-05-31 00:42:00,62.0,48.0,-100.00,SSE,151,9.0,15.0,60,0.00,,,0.00,0.000000,,2013-05-31 07:42:00,
2013-05-31 00:52:00,62.0,48.0,-100.00,SSE,151,9.0,15.0,60,0.00,,,0.00,0.000000,,2013-05-31 07:52:00,
2013-05-31 01:01:00,62.0,48.0,-100.00,SSE,151,9.0,15.0,60,0.00,,,0.00,0.000000,,2013-05-31 08:01:00,
2013-05-31 01:22:00,60.0,43.0,-100.00,South,179,3.0,12.0,54,0.00,,,0.00,0.000000,,2013-05-31 08:22:00,
2013-05-31 01:32:00,60.0,43.0,-100.00,South,179,3.0,12.0,54,0.00,,,0.00,0.000000,,2013-05-31 08:32:00,
2013-05-31 01:42:00,60.0,43.0,-100.00,South,179,3.0,12.0,54,0.00,,,0.00,0.000000,,2013-05-31 08:42:00,
2013-05-31 01:52:00,60.0,43.0,-100.00,South,179,3.0,12.0,54,0.00,,,0.00,0.000000,,2013-05-31 08:52:00,
2013-05-31 02:01:00,60.0,43.0,-100.00,South,179,3.0,12.0,54,0.00,,,0.00,0.000000,,2013-05-31 09:01:00,
2013-05-31 02:02:00,55.0,41.0,-100.00,East,92,3.0,5.0,60,0.00,,,0.00,0.000000,,2013-05-31 09:02:00,
2013-05-31 02:21:00,55.0,41.0,-100.00,East,92,3.0,5.0,60,0.00,,,0.00,0.000000,,2013-05-31 09:21:00,
2013-05-31 02:32:00,55.0,41.0,-100.00,East,92,3.0,5.0,60,0.00,,,0.00,0.000000,,2013-05-31 09:32:00,
2013-05-31 02:43:00,55.0,41.0,-100.00,East,92,3.0,5.0,60,0.00,,,0.00,0.000000,,2013-05-31 09:43:00,
2013-05-31 02:53:00,55.0,41.0,-100.00,East,92,3.0,5.0,60,0.00,,,0.00,0.000000,,2013-05-31 09:53:00,
2013-05-31 03:23:00,54.0,38.0,-100.00,ENE,67,3.0,5.0,55,0.00,,,0.00,0.000000,,2013-05-31 10:23:00,
2013-05-31 03:33:00,54.0,38.0,-100.00,ENE,67,3.0,5.0,55,0.00,,,0.00,0.000000,,2013-05-31 10:33:00,
2013-05-31 03:42:00,54.0,38.0,-100.00,ENE,67,3.0,5.0,55,0.00,,,0.00,0.000000,,2013-05-31 10:42:00,
2013-05-31 03:52:00,54.0,38.0,-100.00,ENE,67,3.0,5.0,55,0.00,,,0.00,0.000000,,2013-05-31 10:52:00,
2013-05-31 04:01:00,54.0,38.0,-100.00,ENE,67,3.0,5.0,55,0.00,,,0.00,0.000000,,2013-05-31 11:01:00,
2013-05-31 04:22:00,51.0,34.0,-100.00,East,83,4.0,7.0,51,0.00,,,0.00,0.000000,,2013-05-31 11:22:00,
2013-05-31 04:32:00,51.0,34.0,-100.00,East,83,4.0,7.0,51,0.00,,,0.00,0.000000,,2013-05-31 11:32:00,
2013-05-31 04:42:00,51.0,34.0,-100.00,East,83,4.0,7.0,51,0.00,,,0.00,0.000000,,2013-05-31 11:42:00,
2013-05-31 04:52:00,51.0,34.0,-100.00,East,83,4.0,7.0,51,0.00,,,0.00,0.000000,,2013-05-31 11:52:00,
2013-05-31 05:01:00,51.0,34.0,-100.00,East,83,4.0,7.0,51,0.00,,,0.00,0.000000,,2013-05-31 12:01:00,
2013-05-31 05:22:00,57.0,23.0,-100.00,ENE,68,3.0,5.0,27,-99.99,,,0.00,0.000000,,2013-05-31 12:22:00,
2013-05-31 05:32:00,57.0,23.0,-100.00,ENE,68,3.0,5.0,27,-99.99,,,0.00,0.000000,,2013-05-31 12:32:00,
2013-05-31 05:42:00,57.0,23.0,-100.00,ENE,68,3.0,5.0,27,-99.99,,,0.00,0.000000,,2013-05-31 12:42:00,
2013-05-31 05:52:00,57.0,23.0,-100.00,ENE,68,3.0,5.0,27,-99.99,,,0.00,0.000000,,2013-05-31 12:52:00,
2013-05-31 06:01:00,57.0,23.0,-100.00,ENE,68,3.0,5.0,27,-99.99,,,0.00,0.000000,,2013-05-31 13:01:00,
2013-05-31 06:02:00,57.0,22.0,-100.00,NE,37,4.0,8.0,25,0.00,,,0.00,5.000000,,2013-05-31 13:02:00,
2013-05-31 06:21:00,57.0,22.0,-100.00,NE,37,4.0,8.0,25,0.00,,,0.00,5.000000,,2013-05-31 13:21:00,
2013-05-31 06:32:00,57.0,22.0,-100.00,NE,37,4.0,8.0,25,0.00,,,0.00,5.000000,,2013-05-31 13:32:00,
2013-05-31 06:42:00,57.0,22.0,-100.00,NE,37,4.0,8.0,25,0.00,,,0.00,5.000000,,2013-05-31 13:42:00,
2013-05-31 06:52:00,57.0,22.0,-100.00,NE,37,4.0,8.0,25,0.00,,,0.00,5.000000,,2013-05-31 13:52:00,
2013-05-31 07:22:00,63.0,29.0,-100.00,NE,39,4.0,6.0,28,0.00,,,0.00,101.000000,,2013-05-31 14:22:00,
2013-05-31 07:32:00,63.0,29.0,-100.00,NE,39,4.0,6.0,28,0.00,,,0.00,101.000000,,2013-05-31 14:32:00,
2013-05-31 07:42:00,63.0,29.0,-100.00,NE,39,4.0,6.0,28,0.00,,,0.00,101.000000,,2013-05-31 14:42:00,
2013-05-31 07:52:00,63.0,29.0,-100.00,NE,39,4.0,6.0,28,0.00,,,0.00,101.000000,,2013-05-31 14:52:00,
2013-05-31 08:01:00,63.0,29.0,-100.00,NE,39,4.0,6.0,28,0.00,,,0.00,101.000000,,2013-05-31 15:01:00,
2013-05-31 08:02:00,68.0,27.0,-100.00,NNE,15,6.0,10.0,21,0.00,,,0.00,327.000000,,2013-05-31 15:02:00,
2013-05-31 08:21:00,68.0,27.0,-100.00,NNE,15,6.0,10.0,21,0.00,,,0.00,327.000000,,2013-05-31 15:21:00,
2013-05-31 08:33:00,68.0,27.0,-100.00,NNE,15,6.0,10.0,21,0.00,,,0.00,327.000000,,2013-05-31 15:33:00,
2013-05-31 08:43:00,68.0,27.0,-100.00,NNE,15,6.0,10.0,21,0.00,,,0.00,327.000000,,2013-05-31 15:43:00,
2013-05-31 08:53:00,68.0,27.0,-100.00,NNE,15,6.0,10.0,21,0.00,,,0.00,327.000000,,2013-05-31 15:53:00,
2013-05-31 09:02:00,72.0,26.0,-100.00,North,359,5.0,10.0,18,0.00,,,0.00,570.000000,,2013-05-31 16:02:00,
2013-05-31 09:22:00,72.0,26.0,-100.00,North,359,5.0,10.0,18,0.00,,,0.00,570.000000,,2013-05-31 16:22:00,
2013-05-31 09:33:00,72.0,26.0,-100.00,North,359,5.0,10.0,18,0.00,,,0.00,570.000000,,2013-05-31 16:33:00,
2013-05-31 09:42:00,72.0,26.0,-100.00,North,359,5.0,10.0,18,0.00,,,0.00,570.000000,,2013-05-31 16:42:00,
2013-05-31 09:52:00,72.0,26.0,-100.00,North,359,5.0,10.0,18,0.00,,,0.00,570.000000,,2013-05-31 16:52:00,
2013-05-31 10:22:00,75.0,24.0,-100.00,NW,317,7.0,13.0,15,0.00,,,0.00,795.000000,,2013-05-31 17:22:00,
2013-05-31 10:32:00,75.0,24.0,-100.00,NW,317,7.0,13.0,15,0.00,,,0.00,795.000000,,2013-05-31 17:32:00,
2013-05-31 10:42:00,75.0,24.0,-100.00,NW,317,7.0,13.0,15,0.00,,,0.00,795.000000,,2013-05-31 17:42:00,
2013-05-31 10:52:00,75.0,24.0,-100.00,NW,317,7.0,13.0,15,0.00,,,0.00,795.000000,,2013-05-31 17:52:00,
2013-05-31 11:01:00,75.0,24.0,-100.00,NW,317,7.0,13.0,15,0.00,,,0.00,795.000000,,2013-05-31 18:01:00,
2013-05-31 11:22:00,76.0,25.0,-100.00,NW,317,8.0,16.0,15,0.00,,,0.00,979.000000,,2013-05-31 18:22:00,
2013-05-31 11:32:00,76.0,25.0,-100.00,NW,317,8.0,16.0,15,0.00,,,0.00,979.000000,,2013-05-31 18:32:00,
2013-05-31 11:42:00,76.0,25.0,-100.00,NW,317,8.0,16.0,15,0.00,,,0.00,979.000000,,2013-05-31 18:42:00,
2013-05-31 11:52:00,76.0,25.0,-100.00,NW,317,8.0,16.0,15,0.00,,,0.00,979.000000,,2013-05-31 18:52:00,
2013-05-31 12:01:00,76.0,25.0,-100.00,NW,317,8.0,16.0,15,0.00,,,0.00,979.000000,,2013-05-31 19:01:00,
2013-05-31 12:22:00,80.0,27.0,-100.00,NW,322,9.0,20.0,14,0.00,,,0.00,1087.000000,,2013-05-31 19:22:00,
2013-05-31 12:32:00,80.0,27.0,-100.00,NW,322,9.0,20.0,14,0.00,,,0.00,1087.000000,,2013-05-31 19:32:00,
2013-05-31 12:42:00,80.0,27.0,-100.00,NW,322,9.0,20.0,14,0.00,,,0.00,1087.000000,,2013-05-31 19:42:00,
2013-05-31 12:52:00,80.0,27.0,-100.00,NW,322,9.0,20.0,14,0.00,,,0.00,1087.000000,,2013-05-31 19:52:00,
2013-05-31 13:01:00,80.0,27.0,-100.00,NW,322,9.0,20.0,14,0.00,,,0.00,1087.000000,,2013-05-31 20:01:00,
2013-05-31 13:22:00,83.0,25.0,-100.00,NW,324,8.0,19.0,12,0.00,,,0.00,1164.000000,,2013-05-31 20:22:00,
2013-05-31 13:32:00,83.0,25.0,-100.00,NW,324,8.0,19.0,12,0.00,,,0.00,1164.000000,,2013-05-31 20:32:00,
2013-05-31 13:42:00,83.0,25.0,-100.00,NW,324,8.0,19.0,12,0.00,,,0.00,1164.000000,,2013-05-31 20:42:00,
2013-05-31 13:52:00,83.0,25.0,-100.00,NW,324,8.0,19.0,12,0.00,,,0.00,1164.000000,,2013-05-31 20:52:00,
2013-05-31 14:01:00,83.0,25.0,-100.00,NW,324,8.0,19.0,12,0.00,,,0.00,1164.000000,,2013-05-31 21:01:00,
2013-05-31 14:02:00,85.0,25.0,-100.00,NW,319,8.0,17.0,11,0.00,,,0.00,1165.000000,,2013-05-31 21:02:00,
2013-05-31 14:22:00,85.0,25.0,-100.00,NW,319,8.0,17.0,11,0.00,,,0.00,1165.000000,,2013-05-31 21:22:00,
2013-05-31 14:33:00,85.0,25.0,-100.00,NW,319,8.0,17.0,11,0.00,,,0.00,1165.000000,,2013-05-31 21:33:00,
2013-05-31 14:43:00,85.0,25.0,-100.00,NW,319,8.0,17.0,11,0.00,,,0.00,1165.000000,,2013-05-31 21:43:00,
2013-05-31 14:54:00,85.0,25.0,-100.00,NW,319,8.0,17.0,11,0.00,,,0.00,1165.000000,,2013-05-31 21:54:00,
2013-05-31 15:22:00,86.0,25.0,-100.00,North,351,7.0,15.0,11,0.00,,,0.00,1105.000000,,2013-05-31 22:22:00,
2013-05-31 15:33:00,86.0,25.0,-100.00,North,351,7.0,15.0,11,0.00,,,0.00,1105.000000,,2013-05-31 22:33:00,
2013-05-31 16:22:00,87.0,26.0,-100.00,NNW,343,7.0,15.0,11,0.00,,,0.00,978.000000,,2013-05-31 23:22:00,
2013-05-31 16:32:00,87.0,26.0,-100.00,NNW,343,7.0,15.0,11,0.00,,,0.00,978.000000,,2013-05-31 23:32:00,
2013-05-31 18:22:00,84.0,24.0,-100.00,NW,306,8.0,12.0,11,0.00,,,0.00,525.000000,,2013-06-01 01:22:00,
2013-05-31 18:32:00,84.0,24.0,-100.00,NW,306,8.0,12.0,11,0.00,,,0.00,525.000000,,2013-06-01 01:32:00,
2013-05-31 19:21:00,81.0,40.0,-100.00,SE,131,4.0,12.0,23,0.00,,,0.00,309.000000,,2013-06-01 02:21:00,
2013-05-31 19:32:00,81.0,40.0,-100.00,SE,131,4.0,12.0,23,0.00,,,0.00,309.000000,,2013-06-01 02:32:00,
2013-05-31 19:42:00,81.0,40.0,-100.00,SE,131,4.0,12.0,23,0.00,,,0.00,309.000000,,2013-06-01 02:42:00,
2013-05-31 19:52:00,81.0,40.0,-100.00,SE,131,4.0,12.0,23,0.00,,,0.00,309.000000,,2013-06-01 02:52:00,
2013-05-31 20:01:00,81.0,40.0,-100.00,SE,131,4.0,12.0,23,0.00,,,0.00,309.000000,,2013-06-01 03:01:00,
2013-05-31 20:02:00,73.0,40.0,-100.00,SE,133,6.0,10.0,30,0.00,,,0.00,70.000000,,2013-06-01 03:02:00,
2013-05-31 20:22:00,73.0,40.0,-100.00,SE,133,6.0,10.0,30,0.00,,,0.00,70.000000,,2013-06-01 03:22:00,
2013-05-31 20:33:00,73.0,40.0,-100.00,SE,133,6.0,10.0,30,0.00,,,0.00,70.000000,,2013-06-01 03:33:00,
2013-05-31 20:43:00,73.0,40.0,-100.00,SE,133,6.0,10.0,30,0.00,,,0.00,70.000000,,2013-06-01 03:43:00,
2013-05-31 20:53:00,73.0,40.0,-100.00,SE,133,6.0,10.0,30,0.00,,,0.00,70.000000,,2013-06-01 03:53:00,
2013-05-31 21:02:00,70.0,38.0,-100.00,SSE,148,4.0,10.0,31,0.00,,,0.00,0.000000,,2013-06-01 04:02:00,
2013-05-31 21:23:00,70.0,38.0,-100.00,SSE,148,4.0,10.0,31,0.00,,,0.00,0.000000,,2013-06-01 04:23:00,
2013-05-31 21:33:00,70.0,38.0,-100.00,SSE,148,4.0,10.0,31,0.00,,,0.00,0.000000,,2013-06-01 04:33:00,
2013-05-31 21:42:00,70.0,38.0,-100.00,SSE,148,4.0,10.0,31,0.00,,,0.00,0.000000,,2013-06-01 04:42:00,
2013-05-31 21:53:00,70.0,38.0,-100.00,SSE,148,4.0,10.0,31,0.00,,,0.00,0.000000,,2013-06-01 04:53:00,
2013-05-31 22:22:00,67.0,38.0,-100.00,ESE,112,5.0,7.0,35,0.00,,,0.00,0.000000,,2013-06-01 05:22:00,
2013-05-31 22:32:00,67.0,38.0,-100.00,ESE,112,5.0,7.0,35,0.00,,,0.00,0.000000,,2013-06-01 05:32:00,
2013-05-31 22:42:00,67.0,38.0,-100.00,ESE,112,5.0,7.0,35,0.00,,,0.00,0.000000,,2013-06-01 05:42:00,
2013-05-31 22:52:00,67.0,38.0,-100.00,ESE,112,5.0,7.0,35,0.00,,,0.00,0.000000,,2013-06-01 05:52:00,
2013-05-31 23:01:00,67.0,38.0,-100.00,ESE,112,5.0,7.0,35,0.00,,,0.00,0.000000,,2013-06-01 06:01:00,
2013-05-31 23:22:00,65.0,37.0,-100.00,East,97,2.0,6.0,36,0.00,,,0.00,0.000000,,2013-06-01 06:22:00,
2013-05-31 23:32:00,65.0,37.0,-100.00,East,97,2.0,6.0,36,0.00,,,0.00,0.000000,,2013-06-01 06:32:00,
2013-05-31 23:42:00,65.0,37.0,-100.00,East,97,2.0,6.0,36,0.00,,,0.00,0.000000,,2013-06-01 06:42:00,
2013-05-31 23:52:00,65.0,37.0,-100.00,East,97,2.0,6.0,36,0.00,,,0.00,0.000000,,2013-06-01 06:52:00,